Aurora, New Mexico
Current Conditions -  °F | °C
As of 12:53 PM on Monday 22 Dec 2014 (Local Time) from KLVS Reporting Station
Few Clouds Few Clouds  
Wind Chill: 12°   Ceiling: Unl
Heat Index: 12°   Visibility: 10mi
Dew Point: -7°   Wind: 32mph
Humidity: 25%   Direction: 290°WNW
Pressure: 29.64"   Gusts: 44mph
Location:  36.0243°N, 105.005°W
Report Text: KLVS 221953Z AUTO 29028G38KT 10SM FEW075 FEW090 12/M07 A2964 RMK AO2 PK WND 30041/1939 SLP975 T01221072
Loading
Personal Weather Stations






























Interactive Weather Map New forecast layout! Learn more

10-Day Weather Forecast

Advertisements
Track Severe Weather on mobile